Time;durP1;ratioP1;P1;durP2;ratioP2;P2;SDS_P1;SDS_P2;PMS_P1;PMS_P2;Temp;Humidity;BMP_temperature;BMP_pressure;BME280_temperature;BME280_humidity;BME280_pressure;Samples;Min_cycle;Max_cycle;Signal;HPM_P1;HPM_P2
2023/08/03 00:02:11;;;;;;;11.70;2.90;;;;;;;16.46;100.00;99543.22;5067126;28;20347;-58
2023/08/03 00:04:43;;;;;;;14.80;2.77;;;;;;;16.35;100.00;99528.81;5088837;28;20380;-58
2023/08/03 00:07:14;;;;;;;14.03;3.23;;;;;;;16.43;100.00;99546.03;5077501;28;20364;-57
2023/08/03 00:09:47;;;;;;;7.63;2.73;;;;;;;16.39;100.00;99540.88;5088321;28;20328;-56
2023/08/03 00:12:18;;;;;;;8.13;2.40;;;;;;;16.38;100.00;99543.63;5077772;28;20368;-59
2023/08/03 00:14:50;;;;;;;7.13;2.53;;;;;;;16.37;100.00;99537.50;5087107;28;20310;-57
2023/08/03 00:17:21;;;;;;;7.90;2.87;;;;;;;16.08;100.00;99482.78;5088144;28;20422;-57
2023/08/03 00:19:53;;;;;;;4.67;2.23;;;;;;;16.32;100.00;99522.81;5078090;28;20290;-59
2023/08/03 00:22:24;;;;;;;7.20;2.87;;;;;;;16.33;100.00;99524.56;5067544;28;20314;-57
2023/08/03 00:24:55;;;;;;;13.17;3.10;;;;;;;16.29;100.00;99521.19;5067373;28;20277;-59
2023/08/03 00:27:25;;;;;;;8.53;2.70;;;;;;;16.26;100.00;99523.16;5087655;28;20351;-57
2023/08/03 00:29:56;;;;;;;9.57;2.37;;;;;;;15.99;100.00;99472.72;5074979;28;20274;-57
2023/08/03 00:32:27;;;;;;;7.83;2.53;;;;;;;16.31;100.00;99537.81;5088007;28;20618;-58
2023/08/03 00:34:59;;;;;;;9.87;2.60;;;;;;;16.31;100.00;99527.25;5078473;28;20281;-57
2023/08/03 00:37:30;;;;;;;9.33;2.73;;;;;;;16.31;100.00;99531.69;5087677;28;20335;-57
2023/08/03 00:40:01;;;;;;;7.17;2.40;;;;;;;16.06;100.00;99490.78;5077146;28;20752;-59
2023/08/03 00:42:31;;;;;;;6.67;2.73;;;;;;;16.27;100.00;99528.34;5087645;28;20292;-57
2023/08/03 00:45:03;;;;;;;6.90;2.70;;;;;;;16.04;100.00;99497.06;5077089;28;20293;-57
2023/08/03 00:47:33;;;;;;;11.53;2.47;;;;;;;16.29;100.00;99544.94;5087520;28;20266;-58
2023/08/03 00:50:08;;;;;;;8.40;2.50;;;;;;;16.28;100.00;99537.97;5077620;28;20350;-58
2023/08/03 00:52:40;;;;;;;9.80;2.63;;;;;;;16.03;100.00;99484.81;5087775;28;20289;-58
2023/08/03 00:55:11;;;;;;;8.70;2.50;;;;;;;16.35;100.00;99539.34;5077363;28;20365;-57
2023/08/03 00:57:42;;;;;;;11.20;2.60;;;;;;;16.37;100.00;99542.78;5072866;28;20285;-58
2023/08/03 01:00:13;;;;;;;9.73;3.57;;;;;;;16.43;100.00;99546.03;5076729;28;20273;-57
2023/08/03 01:02:44;;;;;;;5.47;2.47;;;;;;;16.51;100.00;99551.75;5087367;28;20278;-58
2023/08/03 01:05:17;;;;;;;13.07;2.70;;;;;;;16.47;100.00;99552.81;5076593;28;20285;-57
2023/08/03 01:07:47;;;;;;;7.93;3.10;;;;;;;16.47;100.00;99544.91;5088002;28;20551;-58
2023/08/03 01:10:18;;;;;;;8.90;2.53;;;;;;;16.48;100.00;99538.72;5076704;28;20644;-58
2023/08/03 01:12:49;;;;;;;5.97;2.63;;;;;;;16.49;100.00;99540.41;5085004;28;20372;-58
2023/08/03 01:15:20;;;;;;;9.63;2.73;;;;;;;16.46;100.00;99535.31;5087035;28;20335;-56
2023/08/03 01:17:51;;;;;;;7.50;2.70;;;;;;;16.42;100.00;99539.88;5076200;28;20309;-55
2023/08/03 01:20:24;;;;;;;8.90;3.00;;;;;;;16.39;100.00;99535.63;5086486;28;20277;-57
2023/08/03 01:22:57;;;;;;;6.83;3.00;;;;;;;16.41;100.00;99537.34;5076413;28;20277;-56
2023/08/03 01:25:27;;;;;;;11.70;3.10;;;;;;;16.44;100.00;99539.81;5086277;28;20749;-58
2023/08/03 01:27:58;;;;;;;18.03;3.40;;;;;;;16.43;100.00;99514.38;5075865;28;20277;-57
2023/08/03 01:30:29;;;;;;;5.67;2.87;;;;;;;16.57;100.00;99530.31;5086327;28;20289;-58
2023/08/03 01:33:00;;;;;;;7.33;2.73;;;;;;;16.30;100.00;99488.66;5075782;28;20289;-58
2023/08/03 01:35:31;;;;;;;10.33;3.53;;;;;;;16.54;100.00;99543.66;5086192;28;20289;-57
2023/08/03 01:38:03;;;;;;;7.70;2.97;;;;;;;16.55;100.00;99529.56;5076153;28;20269;-57
2023/08/03 01:40:34;;;;;;;10.70;3.27;;;;;;;16.57;100.00;99538.22;5086544;28;20293;-56
2023/08/03 01:43:04;;;;;;;10.10;3.37;;;;;;;16.52;100.00;99534.97;5075690;28;20301;-59
2023/08/03 01:45:36;;;;;;;7.13;2.60;;;;;;;16.52;100.00;99540.25;5085766;28;20281;-56
2023/08/03 01:48:07;;;;;;;11.50;2.90;;;;;;;16.52;100.00;99540.25;5075652;28;20286;-58
2023/08/03 01:50:38;;;;;;;12.07;3.20;;;;;;;16.55;100.00;99540.13;5085797;28;20358;-57
2023/08/03 01:53:10;;;;;;;11.13;3.40;;;;;;;16.26;100.00;99497.66;5075370;28;20307;-58
2023/08/03 01:55:40;;;;;;;11.57;3.00;;;;;;;16.54;100.00;99543.66;5086399;28;20780;-57
2023/08/03 01:58:12;;;;;;;6.87;2.80;;;;;;;16.58;100.00;99539.94;5075186;28;20588;-56
2023/08/03 02:00:42;;;;;;;13.50;2.73;;;;;;;16.61;100.00;99545.06;5085534;28;20269;-56
2023/08/03 02:03:15;;;;;;;8.37;3.07;;;;;;;16.63;100.00;99543.19;5074612;28;20289;-56
2023/08/03 02:05:45;;;;;;;11.33;3.40;;;;;;;16.53;100.00;99528.78;5085434;28;20266;-58
2023/08/03 02:08:17;;;;;;;8.97;3.17;;;;;;;16.59;100.00;99536.34;5074791;28;20333;-57
2023/08/03 02:10:49;;;;;;;10.77;3.53;;;;;;;16.58;100.00;99555.75;5084216;28;20281;-57
2023/08/03 02:13:19;;;;;;;8.60;3.77;;;;;;;16.60;100.00;99549.47;5085720;28;20285;-58
2023/08/03 02:15:50;;;;;;;10.37;4.03;;;;;;;16.41;100.00;99505.69;5076688;28;20282;-58
2023/08/03 02:18:20;;;;;;;11.07;4.10;;;;;;;16.67;100.00;99544.72;5084224;28;20286;-56
2023/08/03 02:20:51;;;;;;;15.63;4.90;;;;;;;16.68;100.00;99541.16;5074833;28;20342;-58
2023/08/03 02:23:23;;;;;;;16.50;4.57;;;;;;;16.50;100.00;99503.44;5085538;28;20285;-56
2023/08/03 02:25:54;;;;;;;15.37;4.30;;;;;;;16.60;100.00;99496.72;5075102;28;20296;-58
2023/08/03 02:28:25;;;;;;;11.40;4.57;;;;;;;16.88;100.00;99536.63;5085303;28;20669;-57
2023/08/03 02:30:56;;;;;;;15.00;4.60;;;;;;;16.93;100.00;99534.59;5074799;28;20273;-58
2023/08/03 02:33:27;;;;;;;9.87;4.07;;;;;;;16.43;100.00;99448.47;5085272;28;20651;-57
2023/08/03 02:35:58;;;;;;;11.80;4.33;;;;;;;16.90;100.00;99519.78;5074563;28;20590;-57
2023/08/03 02:38:30;;;;;;;13.60;4.80;;;;;;;17.02;100.00;99536.72;5085087;28;20265;-57
2023/08/03 02:41:01;;;;;;;16.40;4.50;;;;;;;17.06;100.00;99540.06;5074937;28;20650;-57
2023/08/03 02:43:31;;;;;;;13.77;4.33;;;;;;;17.14;100.00;99543.97;5084961;28;20305;-58
2023/08/03 02:46:02;;;;;;;10.53;4.60;;;;;;;17.21;100.00;99545.34;5067191;28;20306;-57
2023/08/03 02:48:32;;;;;;;13.37;5.37;;;;;;;17.22;100.00;99539.16;5077956;28;20273;-56
2023/08/03 02:51:03;;;;;;;15.20;5.60;;;;;;;17.27;100.00;99544.16;5075068;28;20377;-56
2023/08/03 02:53:35;;;;;;;13.20;5.53;;;;;;;17.33;100.00;99532.41;5078552;28;20326;-59
2023/08/03 02:56:06;;;;;;;11.77;5.20;;;;;;;17.39;100.00;99539.97;5059671;28;20278;-58
2023/08/03 02:58:37;;;;;;;14.47;5.40;;;;;;;17.43;100.00;99538.88;5067502;28;20758;-58
2023/08/03 03:01:11;;;;;;;15.80;4.70;;;;;;;17.35;100.00;99525.25;5074384;28;20379;-56
2023/08/03 03:03:41;;;;;;;12.00;5.00;;;;;;;17.33;100.00;99532.41;5070150;28;20289;-59
2023/08/03 03:06:12;;;;;;;14.83;5.57;;;;;;;17.20;100.00;99527.81;5060276;28;20286;-58
2023/08/03 03:08:44;;;;;;;19.87;5.43;;;;;;;17.18;100.00;99519.13;5071156;28;20364;-58
2023/08/03 03:11:15;;;;;;;15.03;5.73;;;;;;;17.28;100.00;99535.31;5059470;28;20286;-59
2023/08/03 03:13:45;;;;;;;17.63;6.30;;;;;;;17.39;100.00;99526.78;5071314;28;20289;-59
2023/08/03 03:16:16;;;;;;;16.80;6.33;;;;;;;17.53;100.00;99518.09;5060149;28;20290;-59
2023/08/03 03:18:46;;;;;;;14.40;6.13;;;;;;;17.65;100.00;99518.22;5069953;28;20845;-58
2023/08/03 03:21:17;;;;;;;17.17;6.40;;;;;;;17.72;100.00;99523.16;5060104;28;20289;-59
2023/08/03 03:23:49;;;;;;;15.97;6.40;;;;;;;17.66;100.00;99525.19;5070911;28;20274;-59
2023/08/03 03:26:20;;;;;;;20.90;6.53;;;;;;;17.66;100.00;99514.63;5058417;28;20757;-58
2023/08/03 03:28:51;;;;;;;17.37;5.97;;;;;;;17.66;100.00;99525.19;5060239;28;20274;-58
2023/08/03 03:31:21;;;;;;;19.10;6.70;;;;;;;17.68;100.00;99528.63;5071333;28;20282;-59
2023/08/03 03:33:52;;;;;;;17.57;6.87;;;;;;;17.62;100.00;99515.78;5059945;28;20285;-58
2023/08/03 03:36:22;;;;;;;17.13;6.67;;;;;;;17.65;100.00;99522.66;5070105;28;20304;-58
2023/08/03 03:38:54;;;;;;;15.97;6.60;;;;;;;17.74;100.00;99526.56;5058958;28;20318;-58
2023/08/03 03:41:25;;;;;;;19.40;7.30;;;;;;;17.76;100.00;99529.97;5069716;28;20302;-59
2023/08/03 03:43:55;;;;;;;19.83;6.67;;;;;;;17.79;100.00;99524.50;5059238;28;20294;-59
2023/08/03 03:46:26;;;;;;;15.27;6.07;;;;;;;17.73;100.00;99523.06;5069828;28;20296;-58
2023/08/03 03:48:56;;;;;;;18.30;5.97;;;;;;;17.75;100.00;99525.63;5059238;28;20477;-59
2023/08/03 03:51:27;;;;;;;16.73;6.97;;;;;;;17.32;100.00;99488.44;5070750;28;20286;-58
2023/08/03 03:53:59;;;;;;;21.97;6.20;;;;;;;17.62;100.00;99531.63;5059856;28;20281;-60
2023/08/03 03:56:30;;;;;;;17.37;6.07;;;;;;;17.59;100.00;99539.69;5069403;28;20323;-59
2023/08/03 03:59:00;;;;;;;16.50;5.50;;;;;;;17.46;100.00;99512.28;5059110;28;20290;-59
2023/08/03 04:01:31;;;;;;;19.07;6.00;;;;;;;17.46;100.00;99534.25;5070074;28;20582;-59
2023/08/03 04:04:04;;;;;;;18.23;5.63;;;;;;;17.40;100.00;99512.66;5059358;28;20344;-60
2023/08/03 04:06:36;;;;;;;16.70;6.17;;;;;;;17.43;100.00;99528.31;5070506;28;20343;-59
2023/08/03 04:09:08;;;;;;;13.60;5.03;;;;;;;17.47;100.00;99529.81;5059030;28;20290;-59
2023/08/03 04:11:38;;;;;;;17.67;6.67;;;;;;;17.45;100.00;99529.09;5073077;28;20347;-59
2023/08/03 04:14:09;;;;;;;20.27;6.13;;;;;;;17.50;100.00;99524.38;5060247;28;20334;-58
2023/08/03 04:16:39;;;;;;;15.67;5.90;;;;;;;17.53;100.00;99529.50;5068353;28;20277;-58
2023/08/03 04:19:10;;;;;;;19.90;5.60;;;;;;;17.54;100.00;99531.19;5061051;28;20280;-59
2023/08/03 04:21:42;;;;;;;16.67;6.10;;;;;;;17.57;100.00;99528.38;5069787;28;20755;-58
2023/08/03 04:24:15;;;;;;;15.40;5.80;;;;;;;17.59;100.00;99529.13;5058765;28;20748;-58
2023/08/03 04:26:45;;;;;;;18.03;5.77;;;;;;;17.50;100.00;99513.81;5070680;28;20293;-59
2023/08/03 04:29:16;;;;;;;17.80;6.27;;;;;;;17.62;100.00;99544.81;5062827;28;20749;-59
2023/08/03 04:31:46;;;;;;;16.57;6.40;;;;;;;17.65;100.00;99539.38;5070622;28;20278;-59
2023/08/03 04:34:17;;;;;;;16.03;6.70;;;;;;;17.66;100.00;99530.47;5058583;28;20778;-59
2023/08/03 04:36:47;;;;;;;15.77;6.27;;;;;;;17.74;100.00;99535.31;5068833;28;21084;-58
2023/08/03 04:39:20;;;;;;;20.03;6.33;;;;;;;17.66;100.00;99535.78;5063359;28;20335;-57
2023/08/03 04:41:50;;;;;;;17.83;5.83;;;;;;;17.83;100.00;99531.34;5063382;28;20347;-58
2023/08/03 04:44:21;;;;;;;20.10;6.33;;;;;;;17.56;100.00;99497.63;5072440;28;20808;-58
2023/08/03 04:46:51;;;;;;;16.63;6.27;;;;;;;17.85;100.00;99534.75;5062715;28;20302;-59
2023/08/03 04:49:22;;;;;;;15.43;5.93;;;;;;;17.88;100.00;99546.00;5073319;28;20285;-59
2023/08/03 04:51:53;;;;;;;12.53;5.87;;;;;;;17.86;100.00;99542.59;5062434;28;20281;-60
2023/08/03 04:54:25;;;;;;;18.17;6.60;;;;;;;17.94;100.00;99528.91;5072968;28;20400;-59
2023/08/03 04:56:55;;;;;;;11.93;5.77;;;;;;;18.00;100.00;99533.88;5062875;28;20318;-58
2023/08/03 04:59:28;;;;;;;15.77;6.10;;;;;;;18.04;100.00;99519.50;5073335;28;20724;-59
2023/08/03 05:02:01;;;;;;;12.93;5.27;;;;;;;18.09;100.00;99522.72;5061900;28;20274;-59
2023/08/03 05:04:31;;;;;;;14.83;5.33;;;;;;;18.14;100.00;99521.59;5072730;28;21041;-58
2023/08/03 05:07:02;;;;;;;12.97;5.60;;;;;;;18.07;100.00;99523.75;5061829;28;20313;-59
2023/08/03 05:09:35;;;;;;;18.77;6.50;;;;;;;18.00;100.00;99533.03;5071994;28;20282;-58
2023/08/03 05:12:15;;;;;;;14.73;6.17;;;;;;;17.98;100.00;99519.88;5063789;28;20270;-58
2023/08/03 05:15:00;;;;;;;14.77;5.80;;;;;;;17.97;100.00;99523.47;5061396;28;20351;-58
2023/08/03 05:17:40;;;;;;;14.07;5.77;;;;;;;18.00;100.00;99517.16;5071150;28;20274;-59
2023/08/03 05:20:19;;;;;;;18.17;6.30;;;;;;;18.00;100.00;99523.28;5060698;28;20286;-59
2023/08/03 05:22:51;;;;;;;13.90;5.63;;;;;;;18.06;100.00;99533.50;5062377;28;20280;-58
2023/08/03 05:25:23;;;;;;;15.87;5.40;;;;;;;18.12;100.00;99529.63;5072171;28;20297;-58
2023/08/03 05:27:54;;;;;;;13.03;5.70;;;;;;;18.10;100.00;99535.03;5060903;28;20376;-59
2023/08/03 05:30:25;;;;;;;15.30;5.40;;;;;;;18.19;100.00;99538.06;5072278;28;21085;-59
2023/08/03 05:32:55;;;;;;;12.57;5.07;;;;;;;18.27;100.00;99530.50;5061046;28;20643;-59
2023/08/03 05:35:27;;;;;;;14.23;6.00;;;;;;;18.32;100.00;99523.16;5072437;28;20730;-58
2023/08/03 05:37:57;;;;;;;14.00;5.17;;;;;;;18.33;100.00;99524.88;5062883;28;20274;-59
2023/08/03 05:40:29;;;;;;;15.17;5.17;;;;;;;18.43;100.00;99533.94;5072480;28;20799;-60
2023/08/03 05:43:00;;;;;;;18.83;5.43;;;;;;;18.57;100.00;99548.13;5060554;28;20330;-59
2023/08/03 05:45:38;;;;;;;8.77;4.80;;;;;;;18.64;100.00;99528.28;5072819;28;20327;-58
2023/08/03 05:48:14;;;;;;;15.98;5.43;;;;;;;18.80;100.00;99529.09;5062066;28;20272;-60
2023/08/03 05:50:46;;;;;;;10.87;5.37;;;;;;;18.88;100.00;99521.50;5069320;28;20071;-59
2023/08/03 05:53:17;;;;;;;13.80;5.50;;;;;;;18.83;100.00;99502.41;5060293;28;20365;-56
2023/08/03 05:55:49;;;;;;;14.77;5.40;;;;;;;18.81;100.00;99514.88;5072756;28;20796;-58
2023/08/03 05:58:39;;;;;;;14.03;5.47;;;;;;;18.65;100.00;99524.72;5072540;28;20351;-57
2023/08/03 06:01:13;;;;;;;14.57;5.13;;;;;;;18.50;100.00;99527.34;5061339;28;20369;-57
2023/08/03 06:03:44;;;;;;;15.93;5.50;;;;;;;18.48;100.00;99539.81;5071641;28;20293;-57
2023/08/03 06:06:19;;;;;;;13.67;5.23;;;;;;;18.43;100.00;99535.75;5060946;28;20725;-59
2023/08/03 06:08:52;;;;;;;11.87;5.10;;;;;;;17.88;100.00;99471.16;5062698;28;20294;-58
2023/08/03 06:11:25;;;;;;;11.00;5.37;;;;;;;18.29;100.00;99531.28;5070663;28;20313;-58
2023/08/03 06:13:57;;;;;;;10.10;4.63;;;;;;;18.05;100.00;99494.78;5060906;28;20286;-60
2023/08/03 06:16:27;;;;;;;13.23;4.70;;;;;;;18.22;100.00;99516.72;5073373;28;20289;-58
2023/08/03 06:19:00;;;;;;;12.10;5.17;;;;;;;18.36;100.00;99545.84;5061667;28;20621;-58
2023/08/03 06:21:31;;;;;;;13.07;4.83;;;;;;;18.28;100.00;99532.22;5070839;28;20773;-60
2023/08/03 06:24:03;;;;;;;8.93;4.53;;;;;;;18.22;100.00;99538.75;5060353;28;20380;-60
2023/08/03 06:26:36;;;;;;;10.10;4.10;;;;;;;18.22;100.00;99543.16;5071130;28;20322;-59
2023/08/03 06:29:07;;;;;;;8.93;4.73;;;;;;;18.31;100.00;99553.19;5060150;28;20294;-59
2023/08/03 06:31:39;;;;;;;10.87;4.83;;;;;;;18.40;100.00;99546.50;5070277;28;20737;-59
2023/08/03 06:34:16;;;;;;;17.67;5.87;;;;;;;18.23;100.00;99523.72;5060727;28;22180;-59
2023/08/03 06:36:48;;;;;;;11.37;5.00;;;;;;;18.44;100.00;99546.22;5071647;28;20346;-59
2023/08/03 06:39:19;;;;;;;12.60;5.03;;;;;;;18.53;100.00;99543.03;5059864;28;20273;-56
2023/08/03 06:41:51;;;;;;;14.97;5.07;;;;;;;18.65;100.00;99543.22;5062969;28;20346;-59
2023/08/03 06:44:22;;;;;;;9.77;4.70;;;;;;;18.75;100.00;99539.06;5070324;28;20301;-58
2023/08/03 06:46:52;;;;;;;17.00;5.07;;;;;;;18.80;100.00;99534.38;5061236;28;20294;-58
2023/08/03 06:49:24;;;;;;;9.57;4.10;;;;;;;18.80;100.00;99538.81;5070912;28;20288;-59
2023/08/03 06:51:54;;;;;;;10.17;4.10;;;;;;;18.81;100.00;99551.94;5060731;28;20569;-58
2023/08/03 06:54:25;;;;;;;11.93;4.37;;;;;;;18.69;100.00;99540.28;5070941;28;20404;-59
2023/08/03 06:56:57;;;;;;;12.30;5.07;;;;;;;18.60;100.00;99542.66;5060277;28;20281;-58
2023/08/03 06:59:28;;;;;;;9.83;4.03;;;;;;;18.65;100.00;99540.59;5070481;28;20384;-58
2023/08/03 07:01:58;;;;;;;11.63;4.90;;;;;;;18.63;100.00;99535.38;5060189;28;20566;-58
2023/08/03 07:04:29;;;;;;;8.83;4.10;;;;;;;18.68;100.00;99529.81;5070894;28;20313;-58
2023/08/03 07:06:59;;;;;;;9.37;4.43;;;;;;;18.63;100.00;99537.19;5061039;28;20371;-59
2023/08/03 07:09:29;;;;;;;8.43;4.03;;;;;;;18.64;100.00;99533.56;5071072;28;21076;-58
2023/08/03 07:12:01;;;;;;;7.33;4.27;;;;;;;18.56;100.00;99527.91;5059551;28;20293;-59
2023/08/03 07:14:35;;;;;;;13.43;4.80;;;;;;;18.59;100.00;99536.50;5070910;28;20821;-59
2023/08/03 07:17:06;;;;;;;9.83;4.20;;;;;;;18.53;100.00;99527.16;5043152;28;20649;-58
2023/08/03 07:19:37;;;;;;;10.97;4.50;;;;;;;18.42;100.00;99529.59;5070099;28;20282;-58
2023/08/03 07:22:08;;;;;;;8.57;4.40;;;;;;;18.39;100.00;99540.34;5059980;28;20284;-59
2023/08/03 07:24:39;;;;;;;12.93;4.13;;;;;;;18.17;100.00;99497.63;5069401;28;20278;-58
2023/08/03 07:27:13;;;;;;;11.53;4.87;;;;;;;17.92;100.00;99451.50;5060094;28;20866;-59
2023/08/03 07:29:44;;;;;;;15.30;4.30;;;;;;;17.97;100.00;99475.91;5069984;28;20278;-59
2023/08/03 07:32:14;;;;;;;9.17;4.60;;;;;;;18.21;100.00;99536.16;5059789;28;20755;-58
2023/08/03 07:34:45;;;;;;;10.10;4.07;;;;;;;18.22;100.00;99532.56;5070848;28;20285;-59
2023/08/03 07:37:15;;;;;;;10.63;4.40;;;;;;;18.23;100.00;99534.28;5059151;28;20373;-57
2023/08/03 07:39:47;;;;;;;9.03;4.10;;;;;;;18.22;100.00;99532.56;5069846;28;20281;-58
2023/08/03 07:42:19;;;;;;;10.23;4.03;;;;;;;18.23;100.00;99534.28;5059209;28;20585;-58
2023/08/03 07:44:53;;;;;;;8.10;4.70;;;;;;;18.23;100.00;99524.56;5061763;28;20731;-57
2023/08/03 07:47:24;;;;;;;9.90;4.10;;;;;;;18.39;100.00;99550.94;5069601;28;20301;-59
2023/08/03 07:49:56;;;;;;;11.33;4.20;;;;;;;18.41;100.00;99542.91;5060532;28;20286;-59
2023/08/03 07:52:27;;;;;;;10.60;4.07;;;;;;;18.46;100.00;99541.69;5070152;28;20426;-58
2023/08/03 07:54:57;;;;;;;10.40;4.27;;;;;;;18.39;99.89;99545.63;5057586;28;20365;-58
2023/08/03 07:57:29;;;;;;;14.47;4.70;;;;;;;18.35;100.00;99544.16;5070319;28;20282;-58
2023/08/03 08:00:00;;;;;;;11.80;4.47;;;;;;;18.33;100.00;99556.59;5058536;28;20352;-59
2023/08/03 08:02:31;;;;;;;10.77;4.60;;;;;;;18.21;100.00;99549.41;5069816;28;20752;-58
2023/08/03 08:05:03;;;;;;;8.97;4.40;;;;;;;18.23;100.00;99560.75;5059058;28;20300;-59
2023/08/03 08:07:34;;;;;;;9.53;4.90;;;;;;;18.19;100.00;99561.84;5070741;28;20725;-59
2023/08/03 08:10:06;;;;;;;8.10;4.57;;;;;;;18.11;100.00;99563.16;5060414;28;20982;-59
2023/08/03 08:12:39;;;;;;;9.37;3.93;;;;;;;18.06;100.00;99559.91;5069709;28;20297;-58
2023/08/03 08:15:10;;;;;;;13.47;5.40;;;;;;;18.00;100.00;99568.22;5063930;28;20345;-56
2023/08/03 08:17:40;;;;;;;8.87;4.43;;;;;;;17.96;100.00;99563.19;5074279;28;20691;-58
2023/08/03 08:20:12;;;;;;;9.73;4.70;;;;;;;17.95;100.00;99557.06;5063242;28;20401;-58
2023/08/03 08:22:43;;;;;;;9.87;4.67;;;;;;;18.01;100.00;99563.78;5074157;28;20283;-59
2023/08/03 08:25:13;;;;;;;11.00;5.10;;;;;;;17.95;100.00;99567.66;5068564;28;20279;-59
2023/08/03 08:27:46;;;;;;;7.90;3.80;;;;;;;17.86;100.00;99558.44;5080280;28;20350;-59
2023/08/03 08:30:17;;;;;;;10.53;4.37;;;;;;;17.82;100.00;99561.34;5064228;28;20654;-59
2023/08/03 08:32:47;;;;;;;9.80;4.30;;;;;;;17.79;100.00;99561.50;5074696;28;20773;-59
2023/08/03 08:35:18;;;;;;;10.60;4.53;;;;;;;17.73;100.00;99561.84;5062384;28;20384;-58
2023/08/03 08:37:49;;;;;;;10.40;4.20;;;;;;;17.65;100.00;99560.50;5070083;28;20297;-57
2023/08/03 08:40:20;;;;;;;10.20;4.13;;;;;;;17.58;100.00;99572.34;5073087;28;20332;-59
2023/08/03 08:42:55;;;;;;;10.17;5.07;;;;;;;17.54;100.00;99564.69;5063167;28;20284;-59
2023/08/03 08:45:26;;;;;;;12.30;4.37;;;;;;;17.50;100.00;99566.66;5073655;28;20318;-57
2023/08/03 08:47:57;;;;;;;9.27;4.63;;;;;;;17.51;100.00;99565.69;5061394;28;20326;-58
2023/08/03 08:50:30;;;;;;;11.50;4.27;;;;;;;17.53;100.00;99571.75;5072510;28;20285;-58
2023/08/03 08:53:21;;;;;;;10.87;4.80;;;;;;;17.48;100.00;99563.25;5063573;28;20383;-58
2023/08/03 08:55:55;;;;;;;9.27;4.70;;;;;;;17.19;100.00;99520.81;5063714;28;20347;-58
2023/08/03 08:58:30;;;;;;;10.53;4.57;;;;;;;17.38;100.00;99557.63;5070960;28;20282;-58
2023/08/03 09:01:52;;;;;;;13.33;4.67;;;;;;;17.38;100.00;99556.78;5062376;28;20282;-58
2023/08/03 09:04:35;;;;;;;8.13;3.87;;;;;;;17.22;100.00;99546.19;5071779;28;20358;-58
2023/08/03 09:07:10;;;;;;;5.77;3.97;;;;;;;17.24;100.00;99555.72;5063135;28;20790;-58
2023/08/03 09:09:42;;;;;;;11.80;4.67;;;;;;;17.21;100.00;99555.91;5072842;28;20299;-59
2023/08/03 09:12:26;;;;;;;9.63;4.37;;;;;;;17.23;100.00;99555.84;5062693;28;20286;-58
2023/08/03 09:14:59;;;;;;;9.90;4.17;;;;;;;17.21;100.00;99561.19;5063025;28;20455;-58
2023/08/03 09:17:32;;;;;;;7.60;3.80;;;;;;;17.17;100.00;99551.75;5072872;28;20282;-58
2023/08/03 09:20:04;;;;;;;8.90;3.90;;;;;;;17.17;100.00;99549.09;5063694;28;20288;-58
2023/08/03 09:22:44;;;;;;;9.20;3.77;;;;;;;17.11;100.00;99562.63;5071237;28;20779;-59
2023/08/03 09:25:19;;;;;;;9.03;3.97;;;;;;;17.07;100.00;99555.78;5058835;28;20287;-59
2023/08/03 09:28:08;;;;;;;7.80;4.17;;;;;;;17.04;100.00;99553.34;5061233;28;20305;-59
2023/08/03 09:30:52;;;;;;;6.37;3.50;;;;;;;16.84;100.00;99520.09;5073103;28;20282;-59
2023/08/03 09:33:27;;;;;;;9.07;3.60;;;;;;;16.99;100.00;99544.81;5063510;28;20286;-58
2023/08/03 09:36:10;;;;;;;8.57;3.80;;;;;;;16.95;100.00;99549.41;5061998;28;20285;-58
2023/08/03 09:38:45;;;;;;;11.00;4.23;;;;;;;16.95;100.00;99548.56;5072127;28;20350;-58
2023/08/03 09:41:17;;;;;;;8.40;3.30;;;;;;;16.99;100.00;99565.94;5062094;28;20621;-59
2023/08/03 09:43:49;;;;;;;7.80;3.50;;;;;;;16.98;100.00;99580.06;5072588;28;20335;-59
2023/08/03 09:46:23;;;;;;;8.50;3.50;;;;;;;16.89;100.00;99575.28;5060428;28;20961;-59
2023/08/03 09:48:55;;;;;;;11.23;3.97;;;;;;;16.63;100.00;99527.38;5061575;28;20298;-59
2023/08/03 09:51:32;;;;;;;7.53;3.60;;;;;;;16.86;100.00;99564.88;5072543;28;20770;-58
2023/08/03 09:54:15;;;;;;;9.17;3.20;;;;;;;16.81;100.00;99568.63;5061434;28;20734;-59
2023/08/03 09:56:57;;;;;;;6.57;3.60;;;;;;;16.78;100.00;99568.78;5070452;28;20356;-59
2023/08/03 09:59:35;;;;;;;8.23;3.83;;;;;;;16.63;100.00;99559.00;5072649;28;20284;-62
2023/08/03 10:02:13;;;;;;;11.23;3.33;;;;;;;16.65;100.00;99567.72;5059733;28;20288;-60
2023/08/03 10:04:51;;;;;;;7.97;3.87;;;;;;;16.72;100.00;99579.63;5072114;28;20339;-59
2023/08/03 10:07:26;;;;;;;7.70;3.83;;;;;;;16.76;100.00;99586.44;5062117;28;20825;-61
2023/08/03 10:10:01;;;;;;;8.30;3.77;;;;;;;16.74;100.00;99585.66;5061216;28;20178;-60
2023/08/03 10:12:40;;;;;;;7.80;3.60;;;;;;;16.81;100.00;99595.00;5071290;28;20282;-59
2023/08/03 10:15:14;;;;;;;9.37;3.83;;;;;;;16.55;100.00;99569.13;5061821;28;20696;-58
2023/08/03 10:17:48;;;;;;;8.00;3.87;;;;;;;16.72;100.00;99603.34;5071692;28;20278;-58
2023/08/03 10:20:21;;;;;;;6.40;3.13;;;;;;;16.72;100.00;99616.53;5060511;28;20620;-59
2023/08/03 10:23:16;;;;;;;7.33;3.67;;;;;;;16.24;100.00;99525.88;5061648;28;20325;-59
2023/08/03 10:25:58;;;;;;;8.30;3.33;;;;;;;16.71;100.00;99614.84;5071086;28;20362;-58
2023/08/03 10:28:46;;;;;;;7.33;3.30;;;;;;;16.76;100.00;99619.88;5061500;28;20627;-58
2023/08/03 10:31:19;;;;;;;6.57;2.97;;;;;;;16.73;100.00;99610.34;5061615;28;20868;-61
2023/08/03 10:34:13;;;;;;;6.83;3.77;;;;;;;16.33;100.00;99561.47;5059254;28;20331;-59
2023/08/03 10:36:49;;;;;;;6.40;3.13;;;;;;;16.26;100.00;99568.81;5069471;28;21140;-60
2023/08/03 10:39:50;;;;;;;8.47;2.93;;;;;;;16.50;100.00;99610.66;5060513;28;20265;-61
2023/08/03 10:42:27;;;;;;;7.43;3.33;;;;;;;16.44;100.00;99601.28;5060417;28;20313;-59
2023/08/03 10:45:27;;;;;;;7.60;3.37;;;;;;;16.35;100.00;99597.38;5059868;28;20767;-60
2023/08/03 10:48:36;;;;;;;7.87;2.93;;;;;;;16.44;100.00;99611.84;5059513;28;20281;-60
2023/08/03 10:51:10;;;;;;;9.90;3.30;;;;;;;16.37;100.00;99619.22;5058602;28;20366;-60
2023/08/03 10:53:42;;;;;;;6.23;3.00;;;;;;;16.27;100.00;99615.31;5072441;28;20282;-58
2023/08/03 10:56:15;;;;;;;6.90;3.43;;;;;;;16.26;100.00;99618.91;5059757;28;20347;-59
2023/08/03 10:58:50;;;;;;;7.13;3.30;;;;;;;16.34;100.00;99615.88;5071331;28;20359;-59
2023/08/03 11:01:25;;;;;;;8.47;3.63;;;;;;;16.28;100.00;99611.78;5060916;28;20286;-59
2023/08/03 11:03:58;;;;;;;8.03;3.43;;;;;;;16.25;100.00;99616.34;5059431;28;20286;-59
2023/08/03 11:06:33;;;;;;;9.80;3.40;;;;;;;16.33;100.00;99625.59;5070975;28;20285;-59
2023/08/03 11:09:06;;;;;;;7.23;3.67;;;;;;;16.37;100.00;99629.78;5059419;28;20282;-59
2023/08/03 11:11:40;;;;;;;8.83;3.47;;;;;;;16.31;100.00;99624.78;5071618;28;20278;-59
2023/08/03 11:14:14;;;;;;;9.60;3.70;;;;;;;16.23;100.00;99613.78;5058813;28;20667;-58
2023/08/03 11:16:51;;;;;;;8.20;3.70;;;;;;;16.22;100.00;99617.34;5069763;28;20294;-59
2023/08/03 11:19:32;;;;;;;8.27;4.10;;;;;;;16.21;100.00;99626.19;5061056;28;20273;-58
2023/08/03 11:22:08;;;;;;;7.10;3.47;;;;;;;16.28;100.00;99638.16;5058951;28;20477;-59
2023/08/03 11:24:42;;;;;;;8.17;3.87;;;;;;;16.37;100.00;99627.16;5070576;28;20277;-58
2023/08/03 11:27:15;;;;;;;8.03;3.40;;;;;;;16.45;100.00;99623.25;5059107;28;20763;-58
2023/08/03 11:29:48;;;;;;;8.67;4.00;;;;;;;16.50;100.00;99627.38;5069115;28;20282;-59
2023/08/03 11:32:24;;;;;;;8.87;3.70;;;;;;;16.04;100.00;99539.22;5059992;28;20571;-59
2023/08/03 11:35:01;;;;;;;7.67;3.50;;;;;;;16.39;100.00;99625.25;5060125;28;20366;-58
2023/08/03 11:37:40;;;;;;;7.23;3.70;;;;;;;16.32;100.00;99618.59;5069699;28;20290;-58
2023/08/03 11:40:14;;;;;;;7.37;3.40;;;;;;;16.34;100.00;99622.00;5059276;28;20624;-58
2023/08/03 11:42:50;;;;;;;9.87;3.47;;;;;;;16.31;100.00;99610.78;5069164;28;20358;-59
2023/08/03 11:45:24;;;;;;;5.97;3.20;;;;;;;16.34;100.00;99611.44;5060454;28;20278;-58
2023/08/03 11:48:00;;;;;;;9.67;4.10;;;;;;;16.28;100.00;99606.50;5061858;28;20345;-59
2023/08/03 11:50:35;;;;;;;12.27;3.87;;;;;;;16.24;100.00;99599.66;5074995;28;20286;-58